x

East Bahamas - 335 Nm East Of San Salvador Is, Bahamas (41046) Wave Buoy

11:50am - Wed 23rd Apr 2014 All times are UTC.

  • Sig Wave height 4.3ft
  • Peak Period 8s
  • Average Period 6s
  • Wind
    9mph, 11mph gusts
  • Sea Temp 78°f
  • Air Temp 78°f
  • Sea Pressure 1014.3mb

More Historic Weather Station data

Upgrade to MSW Pro to gain access to the past 30 days of data for over 8000 Wavebouys and Weather Stations around the globe.

Join Pro

Comparision Forecast

View Surf forecast
   
Wed 04/23 11:50am 4.5ft 8s 6s 9 11 mph 1014.3mb 78f 78f
10:50am 5ft 8s 6s 7 9 mph 1013.6mb 78f 78f
9:50am 4.5ft 9s 6s 9 11 mph 1012.8mb 78f 78f
8:50am 5ft 8s 6s 9 11 mph 1012.2mb 78f 78f
7:50am 5ft 9s 6s 7 9 mph 1012.2mb 78f 78f
6:50am 5ft 8s 6s 7 9 mph 1011.8mb 78f 78f
5:50am 5.5ft 8s 6s 9
mph
1012.1mb 79f 78f
4:50am 5.5ft 8s 6s 9 11 mph 1012.5mb 79f 78f
3:50am 5.5ft 7s 6s 9 11 mph 1013.1mb 79f 78f
2:50am 6ft 7s 6s 11 13 mph 1013.3mb 79f 78f
1:50am 5ft 7s 5s 11 16 mph 1013.2mb 79f 79f
12:50am 5ft 6s 5s 13 16 mph 1012.7mb 79f 79f
Tue 04/22 11:50pm 5ft 9s 5s 13 18 mph 1012.1mb 79f 79f
10:50pm 5ft 8s 5s 13 16 mph 1011.5mb 79f 79f
9:50pm 5ft 9s 5s 13 16 mph 1011.4mb 79f 79f
8:50pm 5.5ft 8s 6s 13 16 mph 1011.1mb 79f 79f
7:50pm 5.5ft 8s 6s 13 16 mph 1011mb 79f 79f
6:50pm 5ft 7s 5s 16 18 mph 1011.1mb 79f 79f
5:50pm 5ft 7s 5s 16 18 mph 1011.8mb 79f 79f
4:50pm 5ft 7s 6s 13 16 mph 1012.2mb 79f 78f
3:50pm 5ft 6s 6s 11 16 mph 1012.6mb 79f 78f
2:50pm 5ft 7s 5s 13 16 mph 1012.7mb 79f 78f
1:50pm 5ft 7s 5s 13 16 mph 1012.5mb 78f 78f
12:50pm 5ft 7s 5s 13 16 mph 1012.3mb 78f 78f
11:50am 5ft 6s 5s 13 16 mph 1011.8mb 78f 78f
10:50am 5ft 6s 6s 11 13 mph 1011.3mb 78f 77f
9:50am 5.5ft 7s 5s 11 16 mph 1010.9mb 78f 77f
8:50am 6ft 7s 5s 13 16 mph 1010.7mb 78f 77f
7:50am 6ft 6s 5s 13 16 mph 1010.6mb 78f 77f
6:50am 6ft 6s 5s 13 18 mph 1010.4mb 78f 78f
5:50am 7ft 6s 5s 18 22 mph 1010.5mb 78f 78f
4:50am 6.5ft 6s 5s 20 27 mph 1011.2mb 78f 78f
3:50am 7ft 6s 5s 20 25 mph 1011.7mb 78f 76f
2:50am 7ft 6s 5s 25 31 mph 1012.4mb 78f 73f
1:50am 7ft 7s 5s 22 27 mph 1012.7mb 78f 78f
12:50am 7ft 6s 5s 22 29 mph 1012.4mb 78f 78f
Mon 04/21 11:50pm 7ft 7s 5s 18 22 mph 1012.4mb 78f 78f
10:50pm 7ft 8s 5s 20 25 mph 1011.9mb 78f 78f
9:50pm 7.5ft 6s 5s 22 27 mph 1012mb 78f 78f
8:50pm 8ft 6s 6s 22 27 mph 1012.5mb 78f 77f
7:50pm 7.5ft 7s 5s 22 27 mph 1012.8mb 78f 77f
6:50pm 7.5ft 6s 5s 22 27 mph 1013mb 78f 78f
5:50pm 8ft 8s 6s 20 27 mph 1013.6mb 78f 77f
4:50pm 8ft 6s 5s 22 27 mph 1014.3mb 78f 78f
3:50pm 8ft 6s 5s 22 27 mph 1015mb 78f 78f
2:50pm 7.5ft 6s 5s 25 29 mph 1014.9mb 78f 78f
1:50pm 7ft 6s 5s 22 27 mph 1015.8mb 78f 78f
12:50pm 7.5ft 6s 5s 25 29 mph 1015.6mb 79f 78f
11:50am 7ft 8s 5s 25 27 mph 1015.4mb 79f 78f
10:50am 8ft 7s 5s 22 27 mph 1015.4mb 79f 78f
9:50am 7ft 8s 5s 22 27 mph 1015mb 79f 78f
8:50am 7ft 8s 5s 20 27 mph 1015.1mb 79f 78f
7:50am 7ft 8s 5s 20 25 mph 1015.1mb 79f 78f
6:50am 7ft 9s 5s 20 25 mph 1015.5mb 79f 78f
5:50am 7ft 9s 6s 20 25 mph 1016.1mb 79f 78f
4:50am 7ft 8s 5s 18 22 mph 1017.5mb 79f 78f
3:50am 6.5ft 8s 5s 20 22 mph 1017.6mb 79f 78f
2:50am 7ft 9s 5s 20 25 mph 1017.7mb 79f 78f
1:50am 6.5ft 8s 5s 18 22 mph 1018.1mb 79f 78f
12:50am 7ft 9s 6s 18 20 mph 1018.4mb 79f 79f
Sun 04/20 11:50pm 7.5ft 8s 6s 16 18 mph 1018.5mb 79f 79f
10:50pm 6.5ft 8s 5s 18 20 mph 1017.7mb 79f 79f
9:50pm 7ft 8s 6s 18 22 mph 1017.5mb 79f 79f
8:50pm 8ft 8s 6s 18 22 mph 1017.5mb 79f 79f
7:50pm 7ft 8s 6s 20 25 mph 1017.7mb 79f 79f
6:50pm 7ft 8s 5s 18 22 mph 1018.6mb 79f 79f
5:50pm 7ft 8s 6s 18 22 mph 1019.1mb 79f 79f
4:50pm 7.5ft 8s 6s 20 22 mph 1019.5mb 79f 79f
3:50pm 7.5ft 8s 6s 20 22 mph 1019.7mb 79f 79f
2:50pm 7ft 9s 5s 20 22 mph 1019.8mb 79f 79f
1:50pm 7ft 9s 5s 22 25 mph 1019.8mb 79f 79f
12:50pm 7.5ft 8s 6s 20 25 mph 1019.2mb 79f 78f
11:50am 7ft 9s 6s 20 25 mph 1019mb 79f 78f
10:50am 7ft 9s 6s 20 25 mph 1018.9mb 79f 78f
9:50am 7.5ft 9s 6s 18 20 mph 1018.5mb 79f 78f
8:50am 7ft 8s 6s 20 25 mph 1018mb 79f 78f
7:50am 8ft 10s 6s 20 22 mph 1017.9mb 79f 78f
6:50am 7.5ft 9s 6s 16 20 mph 1018.2mb 79f 78f
5:50am 8ft 9s 6s 18 20 mph 1018.6mb 79f 78f
4:50am 7ft 10s 6s 20 22 mph 1019.3mb 79f 78f
3:50am 7.5ft 9s 6s 18 22 mph 1019.7mb 79f 78f
2:50am 7ft 9s 6s 20 25 mph 1020.3mb 79f 78f
1:50am 7ft 8s 6s 18 20 mph 1020.3mb 79f 79f
12:50am 7ft 9s 6s 18 20 mph 1020.1mb 79f 78f
Sat 04/19 11:50pm 7ft 9s 6s 20 25 mph 1019.5mb 79f 79f
10:50pm 8ft 9s 6s 18 20 mph 1019.2mb 79f 78f
9:50pm 7.5ft 8s 6s 18 20 mph 1019.2mb 79f 79f
8:50pm 7.5ft 9s 6s 16 20 mph 1019.1mb 79f 79f
7:50pm 7.5ft 9s 6s 18 22 mph 1019.1mb 79f 79f
6:50pm 8ft 9s 6s 18 20 mph 1019.5mb 79f 79f
5:50pm 7ft 9s 5s 20 22 mph 1019.7mb 79f 79f
4:50pm 7ft 9s 6s 18 22 mph 1020.1mb 79f 79f
3:50pm 7ft 9s 6s 18 22 mph 1020.7mb 79f 79f
2:50pm 7ft 9s 6s 18 20 mph 1020.9mb 79f 78f
1:50pm 7.5ft 10s 6s 18 20 mph 1020.7mb 79f 78f